createdAt,value
2018-12-18T00:00:15.205Z,22.2
2018-12-18T00:01:15.213Z,21.9
2018-12-18T00:02:15.211Z,21.7
2018-12-18T00:03:15.247Z,22
2018-12-18T00:04:15.195Z,22.2
2018-12-18T00:05:15.201Z,22.1
2018-12-18T00:06:15.220Z,22.9
2018-12-18T00:07:15.294Z,23.3
2018-12-18T00:08:15.196Z,23.4
2018-12-18T00:09:15.191Z,23.6
2018-12-18T00:10:15.199Z,23.6
2018-12-18T00:11:15.202Z,23.6
2018-12-18T00:12:15.269Z,23.8
2018-12-18T00:13:15.206Z,24
2018-12-18T00:14:15.187Z,24.2
2018-12-18T00:15:15.190Z,24.1
2018-12-18T00:16:15.192Z,24
2018-12-18T00:17:15.261Z,23.9
2018-12-18T00:18:15.280Z,23.8
2018-12-18T00:19:15.191Z,23.8
2018-12-18T00:20:15.178Z,23.9
2018-12-18T00:21:15.214Z,24.1
2018-12-18T00:22:15.206Z,24.3
2018-12-18T00:23:15.278Z,24.5
2018-12-18T00:24:15.212Z,24.8
2018-12-18T00:25:15.174Z,24.7
2018-12-18T00:26:15.213Z,24.3
2018-12-18T00:27:15.210Z,24.1
2018-12-18T00:28:15.222Z,24.1
2018-12-18T00:29:15.193Z,23.8
2018-12-18T00:30:15.209Z,23.8
2018-12-18T00:31:15.180Z,23.3
2018-12-18T00:32:15.264Z,22.6
2018-12-18T00:33:15.192Z,21.4
2018-12-18T00:34:15.261Z,20.6
2018-12-18T00:35:15.188Z,19.5
2018-12-18T00:36:15.178Z,18.6
2018-12-18T00:37:15.182Z,18
2018-12-18T00:38:15.266Z,18
2018-12-18T00:39:15.183Z,17.7
2018-12-18T00:40:15.259Z,17.7
2018-12-18T00:41:15.171Z,18.5
2018-12-18T00:42:15.178Z,18.8
2018-12-18T00:43:15.183Z,19
2018-12-18T00:44:15.187Z,19.1
2018-12-18T00:45:15.254Z,19
2018-12-18T00:46:15.184Z,19.2
2018-12-18T00:47:15.174Z,19.1
2018-12-18T00:48:15.183Z,18.8
2018-12-18T00:49:15.177Z,19.4
2018-12-18T00:50:15.235Z,19.4
2018-12-18T00:51:15.185Z,19
2018-12-18T00:52:15.188Z,18.7
2018-12-18T00:53:15.195Z,18.3
2018-12-18T00:54:15.241Z,18.4
2018-12-18T00:55:15.185Z,18.8
2018-12-18T00:56:15.200Z,19.3
2018-12-18T00:57:15.189Z,20.1
2018-12-18T00:58:15.248Z,20.5
2018-12-18T00:59:15.261Z,21.2
2018-12-18T01:00:15.181Z,21.5
2018-12-18T01:01:15.249Z,21.2
2018-12-18T01:02:15.211Z,21
2018-12-18T01:03:15.174Z,20.2
2018-12-18T01:04:15.169Z,19.9
2018-12-18T01:05:15.175Z,19.6
2018-12-18T01:06:15.262Z,19.4
2018-12-18T01:07:15.175Z,19.3
2018-12-18T01:08:15.190Z,19.2
2018-12-18T01:09:15.162Z,19.3
2018-12-18T01:10:15.195Z,19.8
2018-12-18T01:11:15.253Z,20.6
2018-12-18T01:12:15.186Z,21
2018-12-18T01:13:15.183Z,21.3
2018-12-18T01:14:15.225Z,21.7
2018-12-18T01:15:15.169Z,22.2
2018-12-18T01:16:15.242Z,22.6
2018-12-18T01:17:15.210Z,22.8
2018-12-18T01:18:15.190Z,23
2018-12-18T01:19:15.172Z,23.1
2018-12-18T01:20:15.162Z,23.4
2018-12-18T01:21:15.239Z,24
2018-12-18T01:22:15.225Z,24.1
2018-12-18T01:23:15.188Z,24
2018-12-18T01:24:15.165Z,24
2018-12-18T01:25:15.234Z,23.9
2018-12-18T01:26:15.168Z,23.7
2018-12-18T01:27:15.177Z,23.6
2018-12-18T01:28:15.162Z,23.7
2018-12-18T01:29:15.252Z,24.2
2018-12-18T01:30:15.163Z,24.1
2018-12-18T01:31:15.145Z,24.4
2018-12-18T01:32:15.161Z,24.4
2018-12-18T01:33:15.171Z,24.2
2018-12-18T01:34:15.217Z,23.9
2018-12-18T01:35:15.163Z,23.5
2018-12-18T01:36:15.146Z,23.6
2018-12-18T01:37:15.165Z,23.7
2018-12-18T01:38:15.225Z,23.7
2018-12-18T01:39:15.188Z,23.5
2018-12-18T01:40:15.173Z,23.5
2018-12-18T01:41:15.150Z,24.1
2018-12-18T01:42:15.197Z,24.2
2018-12-18T01:43:15.164Z,23.8
2018-12-18T01:44:15.152Z,23.7
2018-12-18T01:45:15.225Z,23.4
2018-12-18T01:46:15.155Z,23.2
2018-12-18T01:47:15.145Z,22.7
2018-12-18T01:48:15.152Z,22.1
2018-12-18T01:49:15.165Z,22.1
2018-12-18T01:50:15.168Z,22.7
2018-12-18T01:51:15.238Z,22.7
2018-12-18T01:52:15.208Z,23.1
2018-12-18T01:53:15.159Z,23.6
2018-12-18T01:54:15.159Z,23.8
2018-12-18T01:55:15.176Z,23.6
2018-12-18T01:56:15.153Z,23.4
2018-12-18T01:57:15.223Z,23.6
2018-12-18T01:58:15.147Z,23.6
2018-12-18T01:59:15.148Z,23.7
2018-12-18T02:00:15.225Z,23.5
2018-12-18T02:01:15.212Z,23.2
2018-12-18T02:02:15.229Z,23
2018-12-18T02:03:15.142Z,22.7
2018-12-18T02:04:15.138Z,22.4
2018-12-18T02:05:15.150Z,22.1
2018-12-18T02:06:15.210Z,22
2018-12-18T02:07:15.163Z,22.5
2018-12-18T02:08:15.194Z,23
2018-12-18T02:09:15.143Z,23.2
2018-12-18T02:10:15.220Z,23.7
2018-12-18T02:11:15.197Z,23.9
2018-12-18T02:12:15.137Z,23.7
2018-12-18T02:13:15.161Z,23.4
2018-12-18T02:14:15.127Z,23
2018-12-18T02:15:15.139Z,22.8
2018-12-18T02:16:15.153Z,22.6
2018-12-18T02:17:15.156Z,22.5
2018-12-18T02:18:15.221Z,22.3
2018-12-18T02:19:15.144Z,22.1
2018-12-18T02:20:15.148Z,21.6
2018-12-18T02:21:15.226Z,21.4
2018-12-18T02:22:15.141Z,21.4
2018-12-18T02:23:15.135Z,21.6
2018-12-18T02:24:15.141Z,22.1
2018-12-18T02:25:15.124Z,22.3
2018-12-18T02:26:15.191Z,21.6
2018-12-18T02:27:15.267Z,21.5
2018-12-18T02:28:15.129Z,21.1
2018-12-18T02:29:15.196Z,21
2018-12-18T02:30:15.119Z,20.9
2018-12-18T02:31:15.114Z,20.4
2018-12-18T02:32:15.207Z,20.5
2018-12-18T02:33:15.208Z,19.8
2018-12-18T02:34:15.134Z,19.9
2018-12-18T02:35:15.138Z,19.7
2018-12-18T02:36:15.110Z,19.8
2018-12-18T02:37:15.136Z,19.8
2018-12-18T02:38:15.199Z,19.8
2018-12-18T02:39:15.229Z,19.4
2018-12-18T02:40:15.140Z,19.3
2018-12-18T02:41:15.127Z,19.6
2018-12-18T02:42:15.111Z,19.3
2018-12-18T02:43:15.124Z,18.9
2018-12-18T02:44:15.194Z,18.9
2018-12-18T02:45:15.184Z,19.3
2018-12-18T02:46:15.202Z,20
2018-12-18T02:47:15.183Z,20.8
2018-12-18T02:48:15.120Z,21.1
2018-12-18T02:49:15.124Z,21.5
2018-12-18T02:50:15.138Z,21.6
2018-12-18T02:51:15.131Z,21.5
2018-12-18T02:52:15.174Z,21.8
2018-12-18T02:53:15.103Z,22.2
2018-12-18T02:54:15.194Z,22.3
2018-12-18T02:55:15.111Z,22.4
2018-12-18T02:56:15.126Z,22.2
2018-12-18T02:57:15.113Z,22.3
2018-12-18T02:58:15.193Z,22.8
2018-12-18T02:59:15.116Z,23.2
2018-12-18T03:00:15.116Z,22.9
2018-12-18T03:01:15.133Z,23.5
2018-12-18T03:02:15.114Z,23.5
2018-12-18T03:03:15.176Z,23.7
2018-12-18T03:04:21.261Z,24
2018-12-18T03:05:15.119Z,24.9
2018-12-18T03:06:15.113Z,25.3
2018-12-18T03:07:15.135Z,25.2
2018-12-18T03:08:15.169Z,25.2
2018-12-18T03:09:15.161Z,25.2
2018-12-18T03:10:15.123Z,24.9
2018-12-18T03:11:15.114Z,24.7
2018-12-18T03:12:15.135Z,24.5
2018-12-18T03:13:15.216Z,24.5
2018-12-18T03:14:15.098Z,24.3
2018-12-18T03:15:15.121Z,24.3
2018-12-18T03:16:15.111Z,24
2018-12-18T03:17:15.112Z,23.6
2018-12-18T03:18:15.190Z,23
2018-12-18T03:19:15.106Z,22.8
2018-12-18T03:20:15.090Z,23
2018-12-18T03:21:15.117Z,23
2018-12-18T03:22:15.122Z,23
2018-12-18T03:23:15.178Z,23.2
2018-12-18T03:24:15.110Z,22.8
2018-12-18T03:25:15.078Z,22.7
2018-12-18T03:26:15.171Z,23.1
2018-12-18T03:27:15.098Z,23.1
2018-12-18T03:28:15.102Z,23
2018-12-18T03:29:15.095Z,22.9
2018-12-18T03:30:15.168Z,22.7
2018-12-18T03:31:15.101Z,23.1
2018-12-18T03:32:15.105Z,23.1
2018-12-18T03:33:15.100Z,22.7
2018-12-18T03:34:15.179Z,22.3
2018-12-18T03:35:15.103Z,22.4
2018-12-18T03:36:15.136Z,22.1
2018-12-18T03:37:15.162Z,22.3
2018-12-18T03:38:15.105Z,21.6
2018-12-18T03:39:15.107Z,21.3
2018-12-18T03:40:15.165Z,21.8
2018-12-18T03:41:15.076Z,21.8
2018-12-18T03:42:15.145Z,22.6
2018-12-18T03:43:15.158Z,23.5
2018-12-18T03:44:15.090Z,23.2
2018-12-18T03:45:15.111Z,23.5
2018-12-18T03:46:15.097Z,23.8
2018-12-18T03:47:15.153Z,23.7
2018-12-18T03:48:15.098Z,24
2018-12-18T03:49:15.090Z,24.1
2018-12-18T03:50:15.102Z,23.8
2018-12-18T03:51:15.160Z,23.5
2018-12-18T03:52:15.073Z,23.2
2018-12-18T03:53:15.114Z,23
2018-12-18T03:54:15.145Z,22.6
2018-12-18T03:55:15.096Z,21.8
2018-12-18T03:56:15.088Z,21.7
2018-12-18T03:57:15.089Z,21.5
2018-12-18T03:58:15.127Z,20.9
2018-12-18T03:59:15.095Z,20.7
2018-12-18T04:00:15.091Z,20.6
2018-12-18T04:01:15.080Z,20.6
2018-12-18T04:02:15.098Z,20.9
2018-12-18T04:03:15.121Z,21.4
2018-12-18T04:04:15.079Z,22.1
2018-12-18T04:05:15.077Z,22.3
2018-12-18T04:06:15.092Z,22.6
2018-12-18T04:07:15.201Z,22.6
2018-12-18T04:08:15.162Z,22.6
2018-12-18T04:09:15.061Z,22
2018-12-18T04:10:15.089Z,22.3
2018-12-18T04:11:15.143Z,22.7
2018-12-18T04:12:15.093Z,23.6
2018-12-18T04:13:15.089Z,24.3
2018-12-18T04:14:15.144Z,24.9
2018-12-18T04:15:15.137Z,25
2018-12-18T04:16:15.066Z,24.9
2018-12-18T04:17:15.090Z,25.4
2018-12-18T04:18:15.117Z,25.5
2018-12-18T04:19:15.056Z,26.1
2018-12-18T04:20:15.139Z,25.6
2018-12-18T04:21:15.136Z,25.1
2018-12-18T04:22:15.077Z,24.7
2018-12-18T04:23:15.139Z,24.4
2018-12-18T04:24:15.074Z,24.2
2018-12-18T04:25:15.045Z,23.8
2018-12-18T04:26:15.153Z,22.9
2018-12-18T04:27:15.069Z,22
2018-12-18T04:28:15.141Z,21.5
2018-12-18T04:29:15.063Z,20.7
2018-12-18T04:30:15.050Z,19.7
2018-12-18T04:31:15.064Z,18.8
2018-12-18T04:32:15.140Z,17.5
2018-12-18T04:33:15.073Z,16.8
2018-12-18T04:34:15.077Z,16.2
2018-12-18T04:35:15.178Z,15.8
2018-12-18T04:36:15.043Z,15.3
2018-12-18T04:37:15.141Z,15
2018-12-18T04:38:15.070Z,14
2018-12-18T04:39:15.061Z,13.4
2018-12-18T04:40:15.057Z,12.8
2018-12-18T04:41:15.050Z,12.6
2018-12-18T04:42:15.135Z,12.4
2018-12-18T04:43:15.053Z,12.7
2018-12-18T04:44:15.061Z,13.4
2018-12-18T04:45:15.821Z,13.8
2018-12-18T04:46:15.065Z,13.5
2018-12-18T04:47:15.125Z,13.9
2018-12-18T04:48:15.062Z,13.9
2018-12-18T04:49:15.057Z,13.6
2018-12-18T04:50:15.066Z,13.5
2018-12-18T04:51:15.071Z,13.7
2018-12-18T04:52:15.094Z,13.9
2018-12-18T04:53:15.048Z,13.5
2018-12-18T04:54:15.065Z,13.5
2018-12-18T04:55:15.137Z,13.5
2018-12-18T04:56:15.132Z,13.3
2018-12-18T04:57:15.066Z,13.3
2018-12-18T04:58:15.057Z,13.2
2018-12-18T04:59:15.122Z,12.9
2018-12-18T05:00:15.046Z,13.1
2018-12-18T05:01:15.066Z,13.7
2018-12-18T05:02:15.049Z,13
2018-12-18T05:03:15.111Z,13
2018-12-18T05:04:15.055Z,13.2
2018-12-18T05:05:15.114Z,12.6
2018-12-18T05:06:15.051Z,12.4
2018-12-18T05:07:15.048Z,12.3
2018-12-18T05:08:15.109Z,12.4
2018-12-18T05:09:15.024Z,12.3
2018-12-18T05:10:15.044Z,12.2
2018-12-18T05:11:15.040Z,12
2018-12-18T05:12:15.057Z,11.7
2018-12-18T05:13:15.048Z,11.8
2018-12-18T05:14:15.094Z,11.7
2018-12-18T05:15:15.098Z,11.8
2018-12-18T05:16:15.102Z,11.9
2018-12-18T05:17:15.037Z,11.7
2018-12-18T05:18:15.040Z,11.7
2018-12-18T05:19:15.032Z,12
2018-12-18T05:20:15.085Z,12.5
2018-12-18T05:21:15.098Z,12.2
2018-12-18T05:22:15.032Z,13.1
2018-12-18T05:23:15.038Z,13.3
2018-12-18T05:24:15.028Z,14.3
2018-12-18T05:25:15.017Z,14.5
2018-12-18T05:26:15.097Z,14.9
2018-12-18T05:27:15.107Z,14.5
2018-12-18T05:28:16.221Z,14.1
2018-12-18T05:29:15.032Z,13.7
2018-12-18T05:30:15.037Z,13.1
2018-12-18T05:31:15.081Z,12.7
2018-12-18T05:32:15.054Z,12.8
2018-12-18T05:33:15.030Z,12.7
2018-12-18T05:34:15.032Z,12.7
2018-12-18T05:35:15.042Z,12.7
2018-12-18T05:36:15.078Z,12.3
2018-12-18T05:37:15.035Z,11.9
2018-12-18T05:38:15.098Z,12.1
2018-12-18T05:39:15.026Z,11.3
2018-12-18T05:40:15.044Z,10.9
2018-12-18T05:41:15.133Z,10.4
2018-12-18T05:42:15.040Z,10.1
2018-12-18T05:43:15.023Z,10.2
2018-12-18T05:44:15.093Z,9.6
2018-12-18T05:45:15.028Z,9.6
2018-12-18T05:46:15.031Z,9.3
2018-12-18T05:47:15.069Z,9.3
2018-12-18T05:48:15.093Z,9.6
2018-12-18T05:49:15.035Z,9.9
2018-12-18T05:50:15.104Z,9.8
2018-12-18T05:51:15.022Z,9.6
2018-12-18T05:52:15.013Z,9.9
2018-12-18T05:53:15.027Z,9.5
2018-12-18T05:54:15.021Z,9.5
2018-12-18T05:55:15.090Z,9.4
2018-12-18T05:56:15.026Z,9.3
2018-12-18T05:57:15.025Z,9.3
2018-12-18T05:58:15.012Z,9.3
2018-12-18T05:59:15.090Z,9.2
2018-12-18T06:00:15.044Z,8.6
2018-12-18T06:01:15.013Z,8.1
2018-12-18T06:02:15.014Z,7.9
2018-12-18T06:03:14.997Z,7.5
2018-12-18T06:04:15.091Z,7
2018-12-18T06:05:15.019Z,6.5
2018-12-18T06:06:15.021Z,6
2018-12-18T06:07:15.017Z,5.9
2018-12-18T06:08:15.001Z,6.1
2018-12-18T06:09:15.019Z,5.8
2018-12-18T06:10:15.070Z,5.5
2018-12-18T06:11:15.017Z,5.1
2018-12-18T06:12:15.024Z,4.9
2018-12-18T06:13:15.002Z,5
2018-12-18T06:14:15.060Z,5.2
2018-12-18T06:15:15.011Z,5.4
2018-12-18T06:16:15.014Z,5.3
2018-12-18T06:17:15.013Z,4.9
2018-12-18T06:18:15.017Z,5
2018-12-18T06:19:15.074Z,4.6
2018-12-18T06:20:14.989Z,4.8
2018-12-18T06:21:15.084Z,5.1
2018-12-18T06:22:15.022Z,5.4
2018-12-18T06:23:15.065Z,5.6
2018-12-18T06:24:15.011Z,5.8
2018-12-18T06:25:16.417Z,6
2018-12-18T06:26:15.016Z,5.8
2018-12-18T06:27:15.087Z,6
2018-12-18T06:28:15.006Z,5.9
2018-12-18T06:29:15.067Z,5.7
2018-12-18T06:30:15.040Z,5.7
2018-12-18T06:31:14.987Z,5.5
2018-12-18T06:32:14.997Z,5.4
2018-12-18T06:33:15.014Z,5.3
2018-12-18T06:34:15.064Z,5.4
2018-12-18T06:35:15.014Z,5.6
2018-12-18T06:36:14.980Z,5.8
2018-12-18T06:37:15.002Z,6
2018-12-18T06:38:15.056Z,6.3
2018-12-18T06:39:15.062Z,6.3
2018-12-18T06:40:14.985Z,6.6
2018-12-18T06:41:14.986Z,6.7
2018-12-18T06:42:14.978Z,6.7
2018-12-18T06:43:14.993Z,6.6
2018-12-18T06:44:15.054Z,6.2
2018-12-18T06:45:14.994Z,6.2
2018-12-18T06:46:14.990Z,6.1
2018-12-18T06:47:15.058Z,6.1
2018-12-18T06:48:14.990Z,5.9
2018-12-18T06:49:14.985Z,5.9
2018-12-18T06:50:15.065Z,6.1
2018-12-18T06:51:14.996Z,6.9
2018-12-18T06:52:14.969Z,7.2
2018-12-18T06:53:15.047Z,7.1
2018-12-18T06:54:14.985Z,7
2018-12-18T06:55:15.003Z,6.9
2018-12-18T06:56:14.988Z,7.2
2018-12-18T06:57:15.041Z,7.3
2018-12-18T06:58:14.993Z,7.2
2018-12-18T06:59:14.991Z,7.3
2018-12-18T07:00:14.993Z,7.4
2018-12-18T07:01:14.998Z,7.4
2018-12-18T07:02:15.042Z,7.6
2018-12-18T07:03:14.964Z,7.4
2018-12-18T07:04:14.981Z,7.2
2018-12-18T07:05:16.814Z,7
2018-12-18T07:06:15.064Z,6.9
2018-12-18T07:07:14.983Z,6.8
2018-12-18T07:08:14.961Z,6.5
2018-12-18T07:09:14.981Z,6.1
2018-12-18T07:10:14.990Z,5.7
2018-12-18T07:11:15.046Z,5.4
2018-12-18T07:12:14.987Z,5.3
2018-12-18T07:13:14.991Z,5.1
2018-12-18T07:14:14.968Z,5.3
2018-12-18T07:15:14.981Z,5.5
2018-12-18T07:16:15.041Z,5.8
2018-12-18T07:17:15.045Z,6
2018-12-18T07:18:14.980Z,7
2018-12-18T07:19:14.961Z,7.5
2018-12-18T07:20:14.959Z,7.7
2018-12-18T07:21:14.969Z,7.4
2018-12-18T07:22:15.023Z,7.7
2018-12-18T07:23:15.053Z,8.4
2018-12-18T07:24:14.963Z,8.8
2018-12-18T07:25:14.953Z,10.1
2018-12-18T07:26:14.981Z,10.3
2018-12-18T07:27:14.995Z,10.6
2018-12-18T07:28:15.036Z,10.5
2018-12-18T07:29:14.993Z,10.3
2018-12-18T07:30:15.021Z,9.7
2018-12-18T07:31:14.951Z,9.9
2018-12-18T07:32:14.979Z,9.9
2018-12-18T07:33:14.962Z,10
2018-12-18T07:34:15.030Z,9.9
2018-12-18T07:35:14.969Z,10
2018-12-18T07:36:15.021Z,9.3
2018-12-18T07:37:14.963Z,9.1
2018-12-18T07:38:14.966Z,8.4
2018-12-18T07:39:14.972Z,8.7
2018-12-18T07:40:14.963Z,8.7
2018-12-18T07:41:15.016Z,8.8
2018-12-18T07:42:14.958Z,8.9
2018-12-18T07:43:14.974Z,8.8
2018-12-18T07:44:14.978Z,8.9
2018-12-18T07:45:14.954Z,9.4
2018-12-18T07:46:15.039Z,8.8
2018-12-18T07:47:15.029Z,8.5
2018-12-18T07:48:14.954Z,8.1
2018-12-18T07:49:14.972Z,8.1
2018-12-18T07:50:14.966Z,8.6
2018-12-18T07:51:14.972Z,8.8
2018-12-18T07:52:15.008Z,8.7
2018-12-18T07:53:15.050Z,8.9
2018-12-18T07:54:14.963Z,8.5
2018-12-18T07:55:14.952Z,8.9
2018-12-18T07:56:14.946Z,8.5
2018-12-18T07:57:15.009Z,8.1
2018-12-18T07:58:14.948Z,8.3
2018-12-18T07:59:14.954Z,8.5
2018-12-18T08:00:14.953Z,9
2018-12-18T08:01:14.985Z,8.8
2018-12-18T08:02:15.038Z,9.4
2018-12-18T08:03:14.948Z,9.2
2018-12-18T08:04:14.947Z,8.6
2018-12-18T08:05:14.949Z,8.6
2018-12-18T08:06:15.021Z,8.7
2018-12-18T08:07:14.947Z,8.5
2018-12-18T08:08:14.953Z,8.8
2018-12-18T08:09:14.959Z,8.9
2018-12-18T08:10:14.944Z,8.4
2018-12-18T08:11:15.017Z,8.1
2018-12-18T08:12:14.946Z,7.8
2018-12-18T08:13:15.042Z,7.8
2018-12-18T08:14:14.930Z,8.2
2018-12-18T08:15:14.963Z,8.3
2018-12-18T08:16:14.946Z,8
2018-12-18T08:17:14.952Z,7.8
2018-12-18T08:18:15.013Z,7.7
2018-12-18T08:19:14.941Z,8.2
2018-12-18T08:20:14.955Z,8.7
2018-12-18T08:21:14.945Z,8.3
2018-12-18T08:22:15.016Z,8
2018-12-18T08:23:15.031Z,7.6
2018-12-18T08:24:14.949Z,7
2018-12-18T08:25:14.942Z,6.5
2018-12-18T08:26:14.957Z,5.9
2018-12-18T08:27:15.064Z,5.5
2018-12-18T08:28:15.023Z,5.3
2018-12-18T08:29:15.005Z,4.8
2018-12-18T08:30:14.925Z,4.3
2018-12-18T08:31:14.930Z,4.3
2018-12-18T08:32:15.012Z,3.9
2018-12-18T08:33:15.028Z,3.6
2018-12-18T08:34:14.942Z,3.3
2018-12-18T08:35:14.940Z,3
2018-12-18T08:36:14.931Z,3.2
2018-12-18T08:37:14.952Z,3.1
2018-12-18T08:38:15.013Z,2.8
2018-12-18T08:39:15.061Z,2.6
2018-12-18T08:40:14.947Z,2.3
2018-12-18T08:41:14.939Z,2.1
2018-12-18T08:42:14.953Z,1.9
2018-12-18T08:43:15.006Z,1.7
2018-12-18T08:44:14.950Z,1.6
2018-12-18T08:45:15.014Z,1.4
2018-12-18T08:46:14.947Z,1.3
2018-12-18T08:47:14.930Z,1.3
2018-12-18T08:48:14.938Z,1.3
2018-12-18T08:49:14.946Z,1.2
2018-12-18T08:50:15.022Z,1.2
2018-12-18T08:51:14.939Z,1.1
2018-12-18T08:52:14.928Z,1.1
2018-12-18T08:53:14.937Z,1
2018-12-18T08:54:14.940Z,1.3
2018-12-18T08:55:15.017Z,1.9
2018-12-18T08:56:14.941Z,2.4
2018-12-18T08:57:14.921Z,2.5
2018-12-18T08:58:14.937Z,2.5
2018-12-18T08:59:14.946Z,2.6
2018-12-18T09:00:15.017Z,2.7
2018-12-18T09:01:14.937Z,2.6
2018-12-18T09:02:14.947Z,2.4
2018-12-18T09:03:14.920Z,2.1
2018-12-18T09:04:15.028Z,1.9
2018-12-18T09:05:14.932Z,1.8
2018-12-18T09:06:15.013Z,1.6
2018-12-18T09:07:14.944Z,1.9
2018-12-18T09:08:14.918Z,2.1
2018-12-18T09:09:14.956Z,2.7
2018-12-18T09:10:14.941Z,3
2018-12-18T09:11:15.022Z,2.8
2018-12-18T09:12:14.933Z,3
2018-12-18T09:13:14.937Z,3.3
2018-12-18T09:14:14.917Z,3.5
2018-12-18T09:15:14.979Z,3.6
2018-12-18T09:16:15.003Z,3.9
2018-12-18T09:17:14.929Z,4.1
2018-12-18T09:18:14.984Z,3.8
2018-12-18T09:19:14.920Z,3.6
2018-12-18T09:20:14.916Z,3.4
2018-12-18T09:21:14.999Z,3.2
2018-12-18T09:22:14.930Z,2.9
2018-12-18T09:23:14.936Z,2.8
2018-12-18T09:24:14.927Z,2.6
2018-12-18T09:25:14.928Z,2.4
2018-12-18T09:26:15.004Z,2.2
2018-12-18T09:27:14.947Z,2.1
2018-12-18T09:28:14.925Z,2.2
2018-12-18T09:29:14.938Z,2.3
2018-12-18T09:30:14.908Z,2.1
2018-12-18T09:31:14.995Z,1.9
2018-12-18T09:32:14.932Z,1.7
2018-12-18T09:33:14.922Z,1.6
2018-12-18T09:34:14.929Z,1.5
2018-12-18T09:35:14.924Z,1.9
2018-12-18T09:36:14.988Z,2.1
2018-12-18T09:37:15.012Z,2.5
2018-12-18T09:38:14.929Z,2.4
2018-12-18T09:39:14.919Z,2.4
2018-12-18T09:40:14.923Z,2.9
2018-12-18T09:41:14.919Z,3.2
2018-12-18T09:42:14.991Z,3.8
2018-12-18T09:43:14.999Z,4
2018-12-18T09:44:14.921Z,3.9
2018-12-18T09:45:14.916Z,3.6
2018-12-18T09:46:14.906Z,3.6
2018-12-18T09:47:14.914Z,3.8
2018-12-18T09:48:14.990Z,3.8
2018-12-18T09:49:14.913Z,4
2018-12-18T09:50:14.920Z,3.9
2018-12-18T09:51:14.920Z,3.8
2018-12-18T09:52:14.988Z,3.8
2018-12-18T09:53:14.924Z,3.7
2018-12-18T09:54:14.912Z,3.6
2018-12-18T09:55:14.909Z,3.6
2018-12-18T09:56:14.922Z,3.8
2018-12-18T09:57:14.955Z,3.7
2018-12-18T09:58:14.892Z,3.5
2018-12-18T09:59:14.989Z,3.2
2018-12-18T10:00:14.915Z,2.9
2018-12-18T10:01:14.912Z,3
2018-12-18T10:02:14.912Z,3.4
2018-12-18T10:03:14.904Z,3.4
2018-12-18T10:04:15.000Z,3.5
2018-12-18T10:05:14.917Z,3.4
2018-12-18T10:06:14.914Z,3.9
2018-12-18T10:07:14.920Z,3.9
2018-12-18T10:08:14.899Z,4
2018-12-18T10:09:14.962Z,4
2018-12-18T10:10:14.920Z,4.1
2018-12-18T10:11:14.927Z,3.7
2018-12-18T10:12:14.922Z,3.9
2018-12-18T10:13:14.922Z,4.1
2018-12-18T10:14:14.951Z,4.1
2018-12-18T10:15:14.918Z,3.9
2018-12-18T10:16:14.905Z,4.1
2018-12-18T10:17:14.988Z,4.5
2018-12-18T10:18:14.917Z,4.6
2018-12-18T10:19:14.892Z,4.4
2018-12-18T10:20:14.898Z,4.3
2018-12-18T10:21:14.915Z,4.4
2018-12-18T10:22:14.976Z,4.4
2018-12-18T10:23:14.904Z,4.2
2018-12-18T10:24:14.914Z,4.1
2018-12-18T10:25:14.896Z,4.1
2018-12-18T10:26:14.910Z,4.9
2018-12-18T10:27:14.911Z,5
2018-12-18T10:28:14.909Z,5.3
2018-12-18T10:29:14.967Z,5.4
2018-12-18T10:30:14.887Z,5.5
2018-12-18T10:31:14.923Z,5.4
2018-12-18T10:32:14.906Z,5.4
2018-12-18T10:33:14.925Z,5.9
2018-12-18T10:34:14.974Z,6
2018-12-18T10:35:14.901Z,5.5
2018-12-18T10:36:14.906Z,5.1
2018-12-18T10:37:14.905Z,5.4
2018-12-18T10:38:14.921Z,6.2
2018-12-18T10:39:14.972Z,6.9
2018-12-18T10:40:14.923Z,7.4
2018-12-18T10:41:14.960Z,7.2
2018-12-18T10:42:14.905Z,7.2
2018-12-18T10:43:14.915Z,6.8
2018-12-18T10:44:14.909Z,6.8
2018-12-18T10:45:14.911Z,7
2018-12-18T10:46:14.949Z,7.3
2018-12-18T10:47:14.919Z,7.3
2018-12-18T10:48:14.907Z,7
2018-12-18T10:49:14.964Z,6.7
2018-12-18T10:50:14.910Z,7
2018-12-18T10:51:14.907Z,7.4
2018-12-18T10:52:14.893Z,7
2018-12-18T10:53:14.914Z,6.9
2018-12-18T10:54:14.978Z,7.7
2018-12-18T10:55:14.923Z,8.5
2018-12-18T10:56:14.910Z,8.5
2018-12-18T10:57:14.906Z,7.9
2018-12-18T10:58:14.891Z,7.6
2018-12-18T10:59:16.679Z,7.8
2018-12-18T11:00:14.926Z,8.3
2018-12-18T11:01:14.903Z,8.7
2018-12-18T11:02:14.911Z,8.5
2018-12-18T11:03:14.890Z,9.4
2018-12-18T11:04:14.986Z,10.7
2018-12-18T11:05:14.911Z,11.3
2018-12-18T11:06:14.925Z,11.3
2018-12-18T11:07:14.913Z,11
2018-12-18T11:08:14.889Z,10.5
2018-12-18T11:09:14.974Z,10.2
2018-12-18T11:10:14.909Z,10.5
2018-12-18T11:11:14.985Z,10.7
2018-12-18T11:12:14.908Z,10.1
2018-12-18T11:13:14.907Z,9.8
2018-12-18T11:14:14.908Z,9.8
2018-12-18T11:15:14.993Z,10.1
2018-12-18T11:16:14.902Z,10.6
2018-12-18T11:17:14.959Z,10.7
2018-12-18T11:18:14.909Z,10.9
2018-12-18T11:19:14.904Z,10.8
2018-12-18T11:20:14.905Z,10.7
2018-12-18T11:21:14.978Z,11.3
2018-12-18T11:22:14.914Z,11.5
2018-12-18T11:23:14.987Z,11.8
2018-12-18T11:24:14.978Z,12.6
2018-12-18T11:25:14.891Z,13.2
2018-12-18T11:26:14.902Z,13.8
2018-12-18T11:27:14.921Z,14.4
2018-12-18T11:28:14.979Z,15.1
2018-12-18T11:29:14.919Z,15.1
2018-12-18T11:30:14.908Z,15.3
2018-12-18T11:31:14.972Z,15.6
2018-12-18T11:32:14.989Z,16.3
2018-12-18T11:33:14.903Z,16.9
2018-12-18T11:34:14.898Z,17.3
2018-12-18T11:35:14.959Z,17.9
2018-12-18T11:36:16.548Z,18.7
2018-12-18T11:37:14.911Z,18.8
2018-12-18T11:38:14.908Z,18.8
2018-12-18T11:39:14.915Z,19.2
2018-12-18T11:40:14.906Z,19
2018-12-18T11:41:14.985Z,19.7
2018-12-18T11:42:14.909Z,19.4
2018-12-18T11:43:14.901Z,18.6
2018-12-18T11:44:14.902Z,17.9
2018-12-18T11:45:14.916Z,17.3
2018-12-18T11:46:14.975Z,16.6
2018-12-18T11:47:14.884Z,15.8
2018-12-18T11:48:14.970Z,15.1
2018-12-18T11:49:14.905Z,14.5
2018-12-18T11:50:14.914Z,13.8
2018-12-18T11:51:14.927Z,13.6
2018-12-18T11:52:14.968Z,13.3
2018-12-18T11:53:14.906Z,12.8
2018-12-18T11:54:14.983Z,12.7
2018-12-18T11:55:14.920Z,13.1
2018-12-18T11:56:14.920Z,12.6
2018-12-18T11:57:14.898Z,12.1
2018-12-18T11:58:14.954Z,12.6
2018-12-18T11:59:15.406Z,12.5
2018-12-18T12:00:14.901Z,11.9
2018-12-18T12:01:14.908Z,11.8
2018-12-18T12:02:14.900Z,12.1
2018-12-18T12:03:14.886Z,11.7
2018-12-18T12:04:14.904Z,11.1
2018-12-18T12:05:14.971Z,10.8
2018-12-18T12:06:14.899Z,10.6
2018-12-18T12:07:14.911Z,10.2
2018-12-18T12:08:14.991Z,9.9
2018-12-18T12:09:14.900Z,9.6
2018-12-18T12:10:14.901Z,9.7
2018-12-18T12:11:14.900Z,9.8
2018-12-18T12:12:14.919Z,10.1
2018-12-18T12:13:14.980Z,10.2
2018-12-18T12:14:14.882Z,10.4
2018-12-18T12:15:14.903Z,10
2018-12-18T12:16:14.900Z,9.9
2018-12-18T12:17:14.898Z,9.7
2018-12-18T12:18:14.984Z,9.3
2018-12-18T12:19:14.888Z,9.3
2018-12-18T12:20:14.913Z,8.9
2018-12-18T12:21:14.897Z,8.9
2018-12-18T12:22:14.973Z,8.9
2018-12-18T12:23:14.898Z,9
2018-12-18T12:24:14.883Z,8.6
2018-12-18T12:25:14.954Z,8.5
2018-12-18T12:26:14.897Z,9.1
2018-12-18T12:27:14.905Z,9.4
2018-12-18T12:28:14.918Z,9.7
2018-12-18T12:29:14.965Z,10.2
2018-12-18T12:30:14.882Z,11.2
2018-12-18T12:31:14.897Z,11.4
2018-12-18T12:32:14.903Z,12.1
2018-12-18T12:33:14.895Z,12.5
2018-12-18T12:34:14.979Z,12.8
2018-12-18T12:35:14.894Z,12.9
2018-12-18T12:36:14.897Z,12.7
2018-12-18T12:37:14.899Z,12.4
2018-12-18T12:38:14.895Z,12.7
2018-12-18T12:39:14.973Z,12.8
2018-12-18T12:40:14.896Z,12.9
2018-12-18T12:41:14.911Z,13.2
2018-12-18T12:42:14.897Z,12.8
2018-12-18T12:43:14.896Z,12.4
2018-12-18T12:44:14.977Z,12.2
2018-12-18T12:45:14.899Z,11.8
2018-12-18T12:46:14.887Z,11.4
2018-12-18T12:47:14.889Z,11.1
2018-12-18T12:48:14.900Z,10.8
2018-12-18T12:49:14.974Z,9.9
2018-12-18T12:50:14.883Z,9.3
2018-12-18T12:51:14.896Z,9.2
2018-12-18T12:52:14.887Z,9.2
2018-12-18T12:53:14.911Z,9.1
2018-12-18T12:54:14.980Z,8.8
2018-12-18T12:55:14.964Z,8.8
2018-12-18T12:56:14.906Z,9.1
2018-12-18T12:57:14.882Z,8.9
2018-12-18T12:58:14.907Z,8.8
2018-12-18T12:59:14.894Z,9
2018-12-18T13:00:16.081Z,8.9
2018-12-18T13:01:16.436Z,8.9
2018-12-18T13:02:16.806Z,8.7
2018-12-18T13:03:14.879Z,8.4
2018-12-18T13:04:14.896Z,8.3
2018-12-18T13:05:14.976Z,9.2
2018-12-18T13:06:16.677Z,9.2
2018-12-18T13:07:16.867Z,9.4
2018-12-18T13:08:15.797Z,8.8
2018-12-18T13:09:16.139Z,8.9
2018-12-18T13:10:14.960Z,8.7
2018-12-18T13:11:14.907Z,9
2018-12-18T13:12:14.879Z,9.3
2018-12-18T13:13:14.897Z,8.9
2018-12-18T13:14:14.875Z,8.5
2018-12-18T13:15:15.018Z,8.7
2018-12-18T13:16:14.890Z,9.5
2018-12-18T13:17:14.919Z,10.4
2018-12-18T13:18:14.909Z,10.6
2018-12-18T13:19:14.870Z,10.7
2018-12-18T13:20:14.910Z,10.8
2018-12-18T13:21:14.896Z,11.1
2018-12-18T13:22:14.906Z,11.3
2018-12-18T13:23:14.969Z,11.6
2018-12-18T13:24:14.903Z,11.6
2018-12-18T13:25:14.888Z,11.9
2018-12-18T13:26:16.761Z,12
2018-12-18T13:27:16.941Z,12.2
2018-12-18T13:28:17.175Z,12.9
2018-12-18T13:29:14.903Z,13.3
2018-12-18T13:30:14.876Z,13.5
2018-12-18T13:31:14.978Z,14
2018-12-18T13:32:14.953Z,14
2018-12-18T13:33:14.982Z,13.9
2018-12-18T13:34:14.958Z,13.6
2018-12-18T13:35:14.886Z,13.5